createdAt,value
2023-06-30T00:00:28.562Z,1.88
2023-06-30T00:02:57.566Z,2.10
2023-06-30T00:05:26.697Z,2.25
2023-06-30T00:07:59.771Z,2.15
2023-06-30T00:10:29.522Z,2.20
2023-06-30T00:12:57.669Z,2.75
2023-06-30T00:15:25.830Z,2.17
2023-06-30T00:17:54.874Z,2.53
2023-06-30T00:20:24.806Z,2.00
2023-06-30T00:22:54.334Z,2.10
2023-06-30T00:25:22.669Z,2.83
2023-06-30T00:27:52.299Z,1.80
2023-06-30T00:30:20.568Z,2.17
2023-06-30T00:32:48.939Z,2.30
2023-06-30T00:35:17.263Z,2.83
2023-06-30T00:37:45.525Z,2.45
2023-06-30T00:40:15.976Z,2.45
2023-06-30T00:42:44.322Z,3.53
2023-06-30T00:45:14.196Z,2.15
2023-06-30T00:47:42.418Z,2.28
2023-06-30T00:50:11.968Z,2.67
2023-06-30T00:52:40.295Z,2.20
2023-06-30T00:55:10.722Z,2.03
2023-06-30T00:57:39.404Z,2.27
2023-06-30T01:00:12.382Z,2.80
2023-06-30T01:02:50.344Z,2.15
2023-06-30T01:05:26.473Z,2.30
2023-06-30T01:08:02.119Z,2.67
2023-06-30T01:10:32.310Z,2.63
2023-06-30T01:13:02.680Z,2.90
2023-06-30T01:15:31.552Z,3.43
2023-06-30T01:18:03.030Z,3.00
2023-06-30T01:20:34.388Z,2.57
2023-06-30T01:23:09.245Z,3.20
2023-06-30T01:25:37.393Z,3.30
2023-06-30T01:28:06.580Z,2.97
2023-06-30T01:30:35.374Z,3.73
2023-06-30T01:33:05.240Z,3.30
2023-06-30T01:35:33.616Z,3.80
2023-06-30T01:38:03.403Z,3.10
2023-06-30T01:40:32.157Z,3.10
2023-06-30T01:43:00.457Z,2.60
2023-06-30T01:45:30.241Z,2.20
2023-06-30T01:47:59.921Z,3.07
2023-06-30T01:50:31.048Z,2.50
2023-06-30T01:52:59.313Z,3.07
2023-06-30T01:55:28.208Z,3.17
2023-06-30T01:57:56.413Z,3.30
2023-06-30T02:00:24.721Z,2.73
2023-06-30T02:02:53.237Z,2.27
2023-06-30T02:05:21.593Z,2.80
2023-06-30T02:07:51.405Z,3.00
2023-06-30T02:10:19.873Z,2.40
2023-06-30T02:12:48.128Z,3.13
2023-06-30T02:15:16.280Z,2.83
2023-06-30T02:17:44.641Z,2.60
2023-06-30T02:20:14.302Z,2.23
2023-06-30T02:22:43.120Z,2.60
2023-06-30T02:25:12.673Z,2.50
2023-06-30T02:27:40.994Z,2.40
2023-06-30T02:30:10.176Z,2.53
2023-06-30T02:32:39.744Z,2.90
2023-06-30T02:35:09.349Z,2.13
2023-06-30T02:37:37.675Z,2.80
2023-06-30T02:40:07.135Z,1.90
2023-06-30T02:42:36.832Z,2.37
2023-06-30T02:45:06.229Z,2.73
2023-06-30T02:47:34.441Z,2.37
2023-06-30T02:50:02.780Z,2.00
2023-06-30T02:52:30.942Z,2.50
2023-06-30T02:54:59.098Z,2.50
2023-06-30T02:57:27.675Z,2.57
2023-06-30T02:59:57.253Z,2.50
2023-06-30T03:07:55.992Z,3.33
2023-06-30T03:10:36.593Z,3.20
2023-06-30T03:13:04.710Z,3.43
2023-06-30T03:15:32.787Z,3.33
2023-06-30T03:18:00.925Z,3.60
2023-06-30T03:20:29.049Z,3.20
2023-06-30T03:22:57.136Z,3.57
2023-06-30T03:25:25.587Z,3.73
2023-06-30T03:27:55.034Z,3.77
2023-06-30T03:30:23.136Z,3.87
2023-06-30T03:32:51.310Z,3.77
2023-06-30T03:35:19.651Z,4.47
2023-06-30T03:37:47.718Z,3.97
2023-06-30T03:40:15.835Z,4.07
2023-06-30T03:42:43.963Z,3.67
2023-06-30T03:45:13.688Z,3.43
2023-06-30T03:47:41.896Z,3.33
2023-06-30T03:50:10.854Z,3.83
2023-06-30T03:52:38.981Z,3.00
2023-06-30T03:55:07.845Z,3.50
2023-06-30T03:57:35.948Z,3.93
2023-06-30T04:00:05.417Z,3.50
2023-06-30T04:02:34.928Z,3.80
2023-06-30T04:05:03.289Z,3.77
2023-06-30T04:07:31.549Z,3.83
2023-06-30T04:10:00.139Z,3.90
2023-06-30T04:12:28.341Z,3.23
2023-06-30T04:14:56.466Z,3.80
2023-06-30T04:17:24.608Z,2.90
2023-06-30T04:19:54.115Z,3.70
2023-06-30T04:22:23.380Z,3.50
2023-06-30T04:24:51.484Z,3.63
2023-06-30T04:27:19.847Z,3.60
2023-06-30T04:29:47.979Z,3.33
2023-06-30T04:32:16.121Z,3.30
2023-06-30T04:34:45.635Z,3.70
2023-06-30T04:37:15.953Z,3.30
2023-06-30T04:39:44.584Z,3.17
2023-06-30T04:42:12.678Z,3.60
2023-06-30T04:44:40.886Z,4.17
2023-06-30T04:47:09.674Z,3.90
2023-06-30T04:49:37.777Z,3.43
2023-06-30T04:52:06.802Z,3.40
2023-06-30T04:54:36.222Z,3.33
2023-06-30T04:57:04.488Z,3.40
2023-06-30T04:59:32.610Z,4.07
2023-06-30T05:02:01.643Z,3.60
2023-06-30T05:04:29.827Z,3.73
2023-06-30T05:06:57.921Z,3.30
2023-06-30T05:09:26.484Z,3.13
2023-06-30T05:11:55.998Z,2.70
2023-06-30T05:29:49.296Z,3.90
2023-06-30T05:32:17.419Z,4.27
2023-06-30T05:34:47.689Z,4.43
2023-06-30T05:37:16.088Z,3.83
2023-06-30T05:39:44.400Z,3.78
2023-06-30T05:42:12.531Z,3.50
2023-06-30T05:44:40.673Z,3.70
2023-06-30T05:47:10.377Z,3.70
2023-06-30T05:49:38.487Z,2.97
2023-06-30T05:52:08.386Z,3.77
2023-06-30T05:54:36.463Z,3.63
2023-06-30T05:57:04.897Z,3.28
2023-06-30T05:59:32.972Z,3.97
2023-06-30T06:02:01.079Z,3.58
2023-06-30T06:04:30.760Z,3.47
2023-06-30T06:07:03.590Z,2.90
2023-06-30T06:09:31.847Z,3.45
2023-06-30T06:12:00.008Z,3.50
2023-06-30T06:14:28.103Z,2.85
2023-06-30T06:16:56.336Z,2.25
2023-06-30T06:19:24.468Z,2.17
2023-06-30T06:21:53.987Z,1.70
2023-06-30T06:24:22.153Z,1.90
2023-06-30T06:26:50.188Z,1.40
2023-06-30T06:29:22.839Z,1.63
2023-06-30T06:35:31.842Z,1.30
2023-06-30T06:38:01.368Z,1.10
2023-06-30T06:40:30.957Z,1.42
2023-06-30T06:42:59.210Z,1.35
2023-06-30T06:45:27.704Z,1.30
2023-06-30T06:48:18.916Z,1.30
2023-06-30T06:50:47.161Z,1.23
2023-06-30T06:53:21.217Z,1.40
2023-06-30T06:55:50.601Z,1.30
2023-06-30T06:58:18.980Z,1.15
2023-06-30T07:00:48.230Z,1.23
2023-06-30T07:03:16.900Z,1.48
2023-06-30T07:05:46.537Z,1.73
2023-06-30T07:08:15.749Z,1.48
2023-06-30T07:10:46.027Z,1.10
2023-06-30T07:13:14.715Z,1.30
2023-06-30T07:15:43.087Z,1.30
2023-06-30T07:18:11.775Z,1.40
2023-06-30T07:20:39.995Z,1.25
2023-06-30T07:23:08.087Z,1.35
2023-06-30T07:25:36.182Z,1.33
2023-06-30T07:28:05.993Z,1.55
2023-06-30T07:30:34.156Z,1.30
2023-06-30T07:33:02.272Z,1.30
2023-06-30T07:35:30.589Z,1.40
2023-06-30T07:37:58.693Z,1.40
2023-06-30T07:40:28.231Z,1.20
2023-06-30T07:42:58.466Z,1.38
2023-06-30T07:45:27.930Z,1.00
2023-06-30T07:47:56.184Z,1.25
2023-06-30T07:50:25.449Z,1.20
2023-06-30T07:52:53.601Z,0.85
2023-06-30T07:55:22.213Z,0.95
2023-06-30T07:57:50.538Z,1.10
2023-06-30T08:00:19.949Z,1.08
2023-06-30T08:02:49.881Z,1.20
2023-06-30T08:05:18.347Z,1.58
2023-06-30T08:07:50.252Z,1.10
2023-06-30T08:10:19.922Z,1.30
2023-06-30T08:12:48.131Z,1.38
2023-06-30T08:15:16.248Z,0.82
2023-06-30T08:17:52.916Z,1.00
2023-06-30T08:20:27.933Z,1.08
2023-06-30T08:22:56.251Z,1.00
2023-06-30T08:25:25.495Z,1.15
2023-06-30T08:27:54.153Z,1.00
2023-06-30T08:30:25.051Z,0.85
2023-06-30T08:32:55.393Z,0.85
2023-06-30T08:35:24.405Z,1.33
2023-06-30T08:37:54.489Z,0.90
2023-06-30T08:40:27.359Z,1.42
2023-06-30T08:42:57.430Z,1.20
2023-06-30T08:45:26.907Z,0.93
2023-06-30T08:47:55.182Z,1.20
2023-06-30T08:50:23.862Z,0.98
2023-06-30T08:52:54.601Z,1.10
2023-06-30T08:55:22.713Z,1.35
2023-06-30T08:57:51.534Z,1.20
2023-06-30T09:00:20.967Z,1.08
2023-06-30T09:02:50.490Z,1.30
2023-06-30T09:05:19.158Z,1.00
2023-06-30T09:07:52.425Z,1.00
2023-06-30T09:10:24.151Z,1.27
2023-06-30T09:12:55.584Z,1.25
2023-06-30T09:15:24.586Z,1.27
2023-06-30T09:17:53.958Z,1.00
2023-06-30T09:20:23.664Z,1.33
2023-06-30T09:22:56.572Z,1.00
2023-06-30T09:25:42.544Z,1.10
2023-06-30T09:28:13.413Z,1.08
2023-06-30T09:30:44.706Z,1.02
2023-06-30T09:33:15.823Z,0.82
2023-06-30T09:35:46.334Z,1.00
2023-06-30T09:38:16.223Z,0.90
2023-06-30T09:40:46.757Z,1.00
2023-06-30T09:43:19.367Z,1.30
2023-06-30T09:45:50.191Z,1.60
2023-06-30T09:48:18.765Z,2.97
2023-06-30T09:50:46.883Z,1.40
2023-06-30T09:53:21.009Z,1.80
2023-06-30T09:55:52.006Z,1.33
2023-06-30T09:58:21.625Z,1.27
2023-06-30T10:00:52.840Z,1.20
2023-06-30T10:03:21.134Z,1.02
2023-06-30T10:05:50.608Z,0.93
2023-06-30T10:08:19.264Z,1.40
2023-06-30T10:10:47.706Z,1.38
2023-06-30T10:13:20.053Z,1.20
2023-06-30T10:15:48.694Z,1.40
2023-06-30T10:18:19.090Z,1.65
2023-06-30T10:20:49.976Z,1.30
2023-06-30T10:23:20.357Z,1.27
2023-06-30T10:25:51.011Z,1.42
2023-06-30T10:28:21.439Z,1.30
2023-06-30T10:30:52.396Z,1.25
2023-06-30T10:33:20.709Z,1.25
2023-06-30T10:35:51.437Z,1.20
2023-06-30T10:38:20.588Z,1.15
2023-06-30T10:40:48.974Z,1.50
2023-06-30T10:43:17.158Z,1.65
2023-06-30T10:46:11.286Z,1.55
2023-06-30T10:48:42.001Z,1.67
2023-06-30T10:51:13.693Z,1.67
2023-06-30T10:53:44.834Z,1.90
2023-06-30T10:56:12.977Z,1.50
2023-06-30T10:58:44.240Z,1.80
2023-06-30T11:01:16.779Z,1.80
2023-06-30T11:04:13.020Z,1.40
2023-06-30T11:06:41.801Z,1.45
2023-06-30T11:09:12.563Z,1.70
2023-06-30T11:11:50.830Z,2.13
2023-06-30T11:14:34.001Z,2.22
2023-06-30T11:17:08.006Z,2.10
2023-06-30T11:19:38.519Z,1.90
2023-06-30T11:22:26.573Z,1.55
2023-06-30T11:24:55.728Z,1.85
2023-06-30T11:27:24.026Z,1.95
2023-06-30T11:29:52.556Z,2.13
2023-06-30T11:32:28.563Z,1.90
2023-06-30T11:34:58.541Z,1.92
2023-06-30T11:37:27.654Z,1.63
2023-06-30T11:39:57.365Z,1.45
2023-06-30T11:42:25.659Z,1.52
2023-06-30T11:44:53.808Z,2.58
2023-06-30T11:47:23.316Z,2.10
2023-06-30T11:49:52.086Z,1.80
2023-06-30T11:52:21.133Z,1.80
2023-06-30T11:54:49.398Z,1.58
2023-06-30T11:57:17.559Z,1.60
2023-06-30T11:59:45.716Z,1.67
2023-06-30T12:02:14.808Z,1.88
2023-06-30T12:04:49.756Z,1.58
2023-06-30T12:07:30.780Z,1.20
2023-06-30T12:10:02.633Z,1.75
2023-06-30T12:12:31.365Z,1.77
2023-06-30T12:14:59.642Z,1.80
2023-06-30T12:17:30.241Z,1.70
2023-06-30T12:19:59.796Z,2.03
2023-06-30T12:22:29.247Z,1.50
2023-06-30T12:24:59.023Z,2.00
2023-06-30T12:27:28.596Z,2.10
2023-06-30T12:30:00.465Z,2.25
2023-06-30T12:32:32.553Z,1.58
2023-06-30T12:35:07.270Z,1.80
2023-06-30T12:37:38.327Z,1.65
2023-06-30T12:40:09.592Z,2.25
2023-06-30T12:42:41.172Z,2.10
2023-06-30T12:45:13.345Z,2.33
2023-06-30T12:52:18.307Z,2.10
2023-06-30T12:54:48.159Z,2.35
2023-06-30T12:57:16.448Z,1.95
2023-06-30T12:59:45.191Z,2.35
2023-06-30T13:02:13.738Z,1.90
2023-06-30T13:04:41.980Z,1.42
2023-06-30T13:10:02.296Z,2.00
2023-06-30T13:12:30.899Z,2.03
2023-06-30T13:14:59.647Z,1.40
2023-06-30T13:17:28.038Z,1.48
2023-06-30T13:19:56.282Z,1.80
2023-06-30T13:22:24.729Z,1.85
2023-06-30T13:24:53.926Z,2.08
2023-06-30T13:27:23.646Z,1.77
2023-06-30T13:29:53.500Z,1.90
2023-06-30T13:32:21.627Z,1.77
2023-06-30T13:34:50.474Z,1.92
2023-06-30T13:37:18.645Z,1.83
2023-06-30T13:39:46.728Z,1.75
2023-06-30T13:42:14.815Z,2.05
2023-06-30T13:44:44.693Z,2.33
2023-06-30T13:59:30.761Z,1.88
2023-06-30T14:02:00.258Z,3.05
2023-06-30T14:04:28.672Z,2.30
2023-06-30T14:06:56.929Z,2.42
2023-06-30T14:09:28.522Z,2.17
2023-06-30T14:23:20.368Z,2.17
2023-06-30T14:25:48.721Z,2.58
2023-06-30T14:28:17.064Z,2.63
2023-06-30T14:30:45.281Z,1.75
2023-06-30T14:33:16.564Z,2.72
2023-06-30T14:35:45.007Z,2.85
2023-06-30T14:38:13.397Z,2.33
2023-06-30T14:40:42.974Z,3.00
2023-06-30T14:43:11.051Z,2.85
2023-06-30T14:45:39.193Z,2.50
2023-06-30T14:48:07.772Z,3.53
2023-06-30T14:50:37.528Z,3.20
2023-06-30T14:53:05.713Z,3.20
2023-06-30T14:55:33.870Z,3.30
2023-06-30T14:58:03.392Z,3.13
2023-06-30T15:00:31.538Z,3.10
2023-06-30T15:03:00.319Z,3.40
2023-06-30T15:05:30.146Z,3.58
2023-06-30T15:07:58.297Z,3.42
2023-06-30T15:10:26.538Z,2.83
2023-06-30T15:12:54.739Z,3.35
2023-06-30T15:15:24.378Z,3.47
2023-06-30T15:17:52.587Z,3.08
2023-06-30T15:20:20.783Z,2.88
2023-06-30T15:22:50.786Z,3.15
2023-06-30T15:25:26.030Z,3.35
2023-06-30T15:27:55.146Z,2.50
2023-06-30T15:30:25.109Z,2.50
2023-06-30T15:32:54.512Z,3.00
2023-06-30T15:35:23.191Z,3.35
2023-06-30T15:37:51.303Z,2.28
2023-06-30T15:40:19.697Z,2.60
2023-06-30T15:42:47.843Z,2.42
2023-06-30T15:45:15.953Z,2.75
2023-06-30T15:47:45.468Z,2.55
2023-06-30T15:50:13.639Z,2.35
2023-06-30T15:52:41.798Z,2.33
2023-06-30T15:55:12.057Z,2.10
2023-06-30T15:57:40.530Z,2.30
2023-06-30T16:00:10.466Z,1.73
2023-06-30T16:02:39.110Z,2.30
2023-06-30T16:05:12.609Z,2.80
2023-06-30T16:07:40.850Z,2.17
2023-06-30T16:10:09.232Z,2.00
2023-06-30T16:12:37.394Z,2.00
2023-06-30T16:27:01.002Z,2.17
2023-06-30T16:29:53.887Z,2.97
2023-06-30T16:32:22.083Z,2.00
2023-06-30T16:42:24.577Z,1.92
2023-06-30T16:44:52.680Z,1.90
2023-06-30T16:47:22.403Z,1.70
2023-06-30T16:49:50.568Z,2.05
2023-06-30T16:52:18.657Z,1.60
2023-06-30T16:54:46.778Z,1.63
2023-06-30T16:57:14.956Z,1.80
2023-06-30T16:59:44.473Z,2.10
2023-06-30T17:02:37.198Z,2.72
2023-06-30T17:05:06.448Z,2.38
2023-06-30T17:07:35.596Z,2.20
2023-06-30T17:10:05.759Z,3.35
2023-06-30T17:12:34.067Z,2.28
2023-06-30T17:15:03.561Z,2.45
2023-06-30T17:17:31.716Z,2.35
2023-06-30T17:19:59.837Z,2.10
2023-06-30T17:22:27.922Z,2.80
2023-06-30T17:25:01.009Z,2.22
2023-06-30T17:27:32.734Z,2.13
2023-06-30T17:30:00.896Z,2.03
2023-06-30T17:32:30.444Z,1.90
2023-06-30T17:34:58.614Z,2.03
2023-06-30T17:37:26.750Z,2.13
2023-06-30T17:39:54.906Z,2.22
2023-06-30T17:42:23.064Z,2.33
2023-06-30T17:44:51.202Z,1.60
2023-06-30T17:47:19.534Z,2.28
2023-06-30T17:49:49.073Z,1.80
2023-06-30T17:52:17.252Z,3.75
2023-06-30T17:54:45.394Z,2.30
2023-06-30T17:57:14.459Z,2.35
2023-06-30T17:59:42.583Z,2.50
2023-06-30T18:02:10.775Z,3.15
2023-06-30T18:04:39.257Z,1.92
2023-06-30T18:07:11.784Z,2.58
2023-06-30T18:09:41.598Z,1.73
2023-06-30T18:12:11.317Z,1.50
2023-06-30T18:14:40.443Z,2.00
2023-06-30T18:17:08.652Z,1.98
2023-06-30T18:19:36.943Z,1.73
2023-06-30T18:22:05.449Z,1.88
2023-06-30T18:24:34.916Z,2.03
2023-06-30T18:27:03.046Z,1.63
2023-06-30T18:29:31.421Z,2.10
2023-06-30T18:32:00.980Z,2.20
2023-06-30T18:34:29.410Z,2.28
2023-06-30T18:36:57.632Z,2.10
2023-06-30T18:39:25.746Z,1.75
2023-06-30T18:41:55.900Z,1.95
2023-06-30T18:44:26.006Z,1.85
2023-06-30T18:46:54.214Z,1.83
2023-06-30T18:49:24.762Z,1.70
2023-06-30T18:51:55.255Z,2.15
2023-06-30T18:54:23.728Z,1.75
2023-06-30T18:56:52.133Z,2.15
2023-06-30T18:59:21.717Z,2.58
2023-06-30T19:01:50.181Z,2.35
2023-06-30T19:04:18.760Z,2.88
2023-06-30T19:06:48.572Z,1.83
2023-06-30T19:09:17.621Z,2.13
2023-06-30T19:11:45.706Z,2.22
2023-06-30T19:14:13.937Z,1.92
2023-06-30T19:16:43.366Z,1.80
2023-06-30T19:19:11.464Z,1.77
2023-06-30T19:21:39.571Z,2.05
2023-06-30T19:24:08.409Z,1.92
2023-06-30T19:26:36.502Z,2.20
2023-06-30T19:29:04.606Z,1.92
2023-06-30T19:31:32.768Z,1.77
2023-06-30T19:34:02.254Z,1.70
2023-06-30T19:36:32.853Z,2.33
2023-06-30T19:39:01.046Z,1.70
2023-06-30T19:41:29.133Z,2.13
2023-06-30T19:43:57.275Z,1.98
2023-06-30T19:46:25.376Z,1.73
2023-06-30T19:48:53.501Z,1.65
2023-06-30T19:51:22.973Z,1.65
2023-06-30T19:53:51.087Z,1.83
2023-06-30T19:56:19.278Z,2.08
2023-06-30T19:58:47.399Z,1.60
2023-06-30T20:01:17.922Z,1.75
2023-06-30T20:03:46.226Z,1.67
2023-06-30T20:06:14.430Z,1.67
2023-06-30T20:08:43.990Z,2.03
2023-06-30T20:11:13.219Z,2.30
2023-06-30T20:13:41.750Z,1.65
2023-06-30T20:16:10.647Z,1.80
2023-06-30T20:18:38.827Z,1.90
2023-06-30T20:21:07.340Z,1.73
2023-06-30T20:23:35.502Z,1.70
2023-06-30T20:26:05.005Z,2.00
2023-06-30T20:28:33.141Z,1.80
2023-06-30T20:31:01.238Z,1.55
2023-06-30T20:33:29.724Z,1.60
2023-06-30T20:36:00.690Z,2.03
2023-06-30T20:38:28.768Z,2.00
2023-06-30T20:40:57.004Z,1.58
2023-06-30T20:43:26.637Z,1.60
2023-06-30T20:45:54.729Z,1.95
2023-06-30T20:48:22.816Z,2.00
2023-06-30T20:50:51.000Z,1.42
2023-06-30T20:53:19.149Z,1.80
2023-06-30T20:55:47.287Z,2.17
2023-06-30T20:58:15.522Z,1.90
2023-06-30T21:00:45.254Z,1.70
2023-06-30T21:03:13.741Z,1.42
2023-06-30T21:05:42.065Z,1.60
2023-06-30T21:08:10.610Z,1.70
2023-06-30T21:10:38.889Z,2.17
2023-06-30T21:13:07.118Z,1.58
2023-06-30T21:15:35.207Z,1.42
2023-06-30T21:18:05.451Z,1.88
2023-06-30T21:20:34.057Z,1.50
2023-06-30T21:23:02.212Z,1.58
2023-06-30T21:25:31.979Z,1.58
2023-06-30T21:28:00.105Z,1.60
2023-06-30T21:30:28.205Z,2.03
2023-06-30T21:32:56.465Z,1.98
2023-06-30T21:35:26.042Z,2.47
2023-06-30T21:37:54.150Z,1.83
2023-06-30T21:40:22.331Z,2.00
2023-06-30T21:42:50.420Z,1.73
2023-06-30T21:45:18.684Z,3.05
2023-06-30T21:47:46.943Z,2.58
2023-06-30T21:50:15.121Z,2.80
2023-06-30T21:52:44.676Z,2.20
2023-06-30T21:55:12.844Z,4.30
2023-06-30T21:57:40.927Z,2.97
2023-06-30T22:00:10.798Z,3.35
2023-06-30T22:02:39.099Z,2.42
2023-06-30T22:05:07.455Z,2.67
2023-06-30T22:07:35.614Z,3.40
2023-06-30T22:10:07.075Z,2.97
2023-06-30T22:12:35.215Z,3.40
2023-06-30T22:15:03.867Z,2.38
2023-06-30T22:17:32.064Z,1.75
2023-06-30T22:20:02.260Z,1.90
2023-06-30T22:22:30.404Z,2.25
2023-06-30T22:24:58.560Z,2.45
2023-06-30T22:27:28.069Z,2.03
2023-06-30T22:29:56.345Z,2.45
2023-06-30T22:32:25.640Z,3.78
2023-06-30T22:34:53.781Z,2.72
2023-06-30T22:37:22.379Z,2.75
2023-06-30T22:39:50.470Z,2.17
2023-06-30T22:42:22.687Z,2.78
2023-06-30T22:44:52.320Z,2.65
2023-06-30T22:47:20.574Z,2.47
2023-06-30T22:49:48.838Z,2.17
2023-06-30T22:52:16.952Z,2.33
2023-06-30T22:54:45.066Z,2.08
2023-06-30T22:57:13.154Z,2.40
2023-06-30T22:59:41.271Z,2.42
2023-06-30T23:02:10.736Z,2.17
2023-06-30T23:04:39.391Z,1.77
2023-06-30T23:07:08.252Z,2.17
2023-06-30T23:09:36.369Z,1.95
2023-06-30T23:12:04.684Z,2.00
2023-06-30T23:14:32.790Z,2.17
2023-06-30T23:17:00.916Z,1.70
2023-06-30T23:19:30.516Z,1.90
2023-06-30T23:22:06.754Z,1.65
2023-06-30T23:24:35.469Z,1.73
2023-06-30T23:27:04.493Z,1.67
2023-06-30T23:29:34.898Z,1.83
2023-06-30T23:32:07.267Z,1.90
2023-06-30T23:34:37.993Z,1.83
2023-06-30T23:37:06.875Z,1.60
2023-06-30T23:39:36.824Z,2.00
2023-06-30T23:42:05.659Z,2.03
2023-06-30T23:44:33.805Z,1.60
2023-06-30T23:47:03.524Z,1.70
2023-06-30T23:49:32.409Z,1.60
2023-06-30T23:52:02.200Z,1.95
2023-06-30T23:54:30.275Z,2.00
2023-06-30T23:56:58.378Z,1.90
2023-06-30T23:59:26.526Z,2.10
